Time;durP1;ratioP1;P1;durP2;ratioP2;P2;SDS_P1;SDS_P2;PMS_P1;PMS_P2;Temp;Humidity;BMP_temperature;BMP_pressure;BME280_temperature;BME280_humidity;BME280_pressure;Samples;Min_cycle;Max_cycle;Signal;HPM_P1;HPM_P2
2022/01/09 00:01:30;;;;;;;4.27;2.90;;;3.00;99.90;;;;;;5012360;28;20665;-78
2022/01/09 00:03:56;;;;;;;3.03;2.40;;;3.10;99.90;;;;;;5010911;28;20215;-78
2022/01/09 00:06:21;;;;;;;4.40;3.10;;;3.10;99.90;;;;;;5009838;28;20176;-78
2022/01/09 00:08:47;;;;;;;4.40;2.80;;;3.10;99.90;;;;;;5012520;28;20189;-78
2022/01/09 00:11:14;;;;;;;5.00;2.97;;;3.20;99.90;;;;;;5012436;28;20194;-78
2022/01/09 00:13:41;;;;;;;4.03;2.73;;;3.20;99.90;;;;;;5009344;28;20667;-79
2022/01/09 00:16:07;;;;;;;5.67;2.73;;;3.30;99.90;;;;;;5012507;28;20179;-78
2022/01/09 00:18:32;;;;;;;5.60;2.80;;;3.30;99.90;;;;;;5003247;28;20182;-78
2022/01/09 00:20:58;;;;;;;3.23;2.60;;;3.30;99.90;;;;;;5008607;28;20179;-79
2022/01/09 00:23:24;;;;;;;6.07;2.70;;;3.20;99.90;;;;;;5011509;28;20229;-78
2022/01/09 00:25:50;;;;;;;7.30;2.80;;;3.20;99.90;;;;;;5010356;28;20201;-79
2022/01/09 00:28:16;;;;;;;4.27;2.80;;;3.20;99.90;;;;;;4993557;28;20230;-77
2022/01/09 00:30:46;;;;;;;3.40;2.77;;;3.10;99.90;;;;;;5013053;28;20178;-78
2022/01/09 00:33:12;;;;;;;4.97;2.83;;;3.00;99.90;;;;;;5003501;28;20194;-78
2022/01/09 00:35:38;;;;;;;5.07;3.00;;;3.00;99.90;;;;;;5015531;28;20181;-78
2022/01/09 00:38:03;;;;;;;4.60;2.60;;;3.00;99.90;;;;;;5000253;28;20182;-78
2022/01/09 00:40:30;;;;;;;6.00;2.60;;;3.00;99.90;;;;;;5019862;28;20160;-79
2022/01/09 00:42:56;;;;;;;4.37;2.83;;;3.00;99.90;;;;;;5019549;28;20746;-78
2022/01/09 00:45:23;;;;;;;4.20;3.03;;;3.00;99.90;;;;;;5034480;28;20158;-78
2022/01/09 00:47:49;;;;;;;4.57;2.67;;;2.90;99.90;;;;;;5010188;28;20169;-77
2022/01/09 00:50:15;;;;;;;4.60;2.60;;;3.00;99.90;;;;;;5005155;28;20178;-79
2022/01/09 00:52:44;;;;;;;3.73;2.60;;;3.00;99.90;;;;;;5010781;28;20258;-79
2022/01/09 00:55:10;;;;;;;4.77;2.80;;;3.00;99.90;;;;;;4992075;28;20488;-78
2022/01/09 00:57:36;;;;;;;3.33;2.27;;;3.00;99.90;;;;;;5012816;28;20312;-79
2022/01/09 01:00:05;;;;;;;4.23;2.60;;;3.00;99.90;;;;;;4995252;28;20332;-79
2022/01/09 01:02:31;;;;;;;8.70;2.70;;;3.10;99.90;;;;;;5013562;28;20634;-79
2022/01/09 01:04:58;;;;;;;3.83;2.47;;;3.10;99.90;;;;;;5015440;28;20189;-79
2022/01/09 01:07:23;;;;;;;3.87;2.00;;;3.10;99.90;;;;;;4996566;28;20248;-79
2022/01/09 01:09:51;;;;;;;3.30;2.30;;;3.20;99.90;;;;;;4992300;28;20215;-79
2022/01/09 01:12:17;;;;;;;3.70;2.20;;;3.30;99.90;;;;;;5007863;28;20580;-79
2022/01/09 01:14:42;;;;;;;4.17;2.40;;;3.30;99.90;;;;;;5008300;28;20217;-79
2022/01/09 01:17:09;;;;;;;6.13;2.30;;;3.30;99.90;;;;;;4991978;28;20182;-79
2022/01/09 01:19:35;;;;;;;3.90;2.20;;;3.30;99.90;;;;;;5011489;28;20171;-79
2022/01/09 01:22:01;;;;;;;3.37;2.37;;;3.30;99.90;;;;;;5011471;28;20182;-79
2022/01/09 01:24:28;;;;;;;3.57;2.20;;;3.30;99.90;;;;;;4995054;28;20453;-79
2022/01/09 01:26:54;;;;;;;4.90;2.23;;;3.30;99.90;;;;;;4995386;28;20183;-78
2022/01/09 01:29:19;;;;;;;3.40;2.57;;;3.20;99.90;;;;;;4994028;28;20634;-78
2022/01/09 01:31:45;;;;;;;6.20;2.63;;;3.20;99.90;;;;;;5004728;28;20187;-78
2022/01/09 01:34:14;;;;;;;6.43;2.87;;;3.10;99.90;;;;;;4990366;28;20226;-77
2022/01/09 01:36:41;;;;;;;4.13;2.50;;;3.00;99.90;;;;;;5009553;28;20179;-78
2022/01/09 01:39:07;;;;;;;5.50;2.97;;;3.00;99.90;;;;;;4994120;28;20171;-78
2022/01/09 01:41:33;;;;;;;4.30;3.13;;;2.90;99.90;;;;;;5007965;28;20175;-79
2022/01/09 01:43:58;;;;;;;6.67;3.33;;;2.90;99.90;;;;;;4989104;28;20198;-79
2022/01/09 01:46:24;;;;;;;6.07;3.40;;;2.80;99.90;;;;;;4989050;28;20179;-81
2022/01/09 01:48:50;;;;;;;4.23;3.00;;;2.80;99.90;;;;;;5009536;28;20583;-78
2022/01/09 01:51:18;;;;;;;7.10;3.00;;;2.80;99.90;;;;;;4996217;28;20179;-77
2022/01/09 01:53:44;;;;;;;7.33;3.20;;;2.70;99.90;;;;;;5006658;28;20681;-78
2022/01/09 01:56:18;;;;;;;4.00;2.87;;;2.70;99.90;;;;;;4995324;28;20209;-78
2022/01/09 01:58:43;;;;;;;4.47;2.60;;;2.70;99.90;;;;;;4993367;28;20175;-79
2022/01/09 02:01:09;;;;;;;5.90;2.60;;;2.70;99.90;;;;;;5006065;28;20182;-78
2022/01/09 02:03:35;;;;;;;4.70;2.57;;;2.80;99.90;;;;;;5003223;28;20218;-78
2022/01/09 02:06:00;;;;;;;4.47;2.37;;;2.80;99.90;;;;;;5012692;28;20186;-79
2022/01/09 02:08:26;;;;;;;3.60;2.40;;;2.80;99.90;;;;;;5016094;28;20206;-79
2022/01/09 02:10:52;;;;;;;6.10;2.97;;;2.80;99.90;;;;;;4998814;28;20217;-79
2022/01/09 02:13:23;;;;;;;4.60;2.43;;;2.70;99.90;;;;;;5017779;28;20253;-79
2022/01/09 02:15:49;;;;;;;4.10;3.03;;;2.60;99.90;;;;;;5001806;28;20175;-79
2022/01/09 02:18:21;;;;;;;3.47;2.90;;;2.50;99.90;;;;;;5016802;28;20171;-79
2022/01/09 02:20:48;;;;;;;5.33;3.03;;;2.40;99.90;;;;;;5018436;28;20178;-78
2022/01/09 02:23:16;;;;;;;6.77;3.20;;;2.40;99.90;;;;;;5017303;28;20187;-79
2022/01/09 02:25:43;;;;;;;6.57;3.30;;;2.40;99.90;;;;;;5017190;28;20178;-79
2022/01/09 02:28:11;;;;;;;4.80;3.30;;;2.30;99.90;;;;;;5017353;28;20515;-79
2022/01/09 02:30:41;;;;;;;6.30;3.47;;;2.30;99.90;;;;;;5016621;28;20170;-78
2022/01/09 02:33:09;;;;;;;6.27;3.93;;;2.30;99.90;;;;;;5016056;28;20225;-78
2022/01/09 02:35:36;;;;;;;4.47;3.57;;;2.20;99.90;;;;;;5018570;28;20178;-78
2022/01/09 02:38:04;;;;;;;5.67;3.17;;;2.30;99.90;;;;;;5015092;28;20189;-78
2022/01/09 02:40:31;;;;;;;4.10;3.13;;;2.10;99.90;;;;;;4995579;28;20611;-77
2022/01/09 02:42:56;;;;;;;7.23;3.30;;;2.00;99.90;;;;;;5020534;28;20194;-79
2022/01/09 02:45:24;;;;;;;4.67;3.47;;;2.00;99.90;;;;;;5018975;28;20214;-79
2022/01/09 02:47:55;;;;;;;5.20;3.47;;;2.10;99.90;;;;;;5006460;28;20237;-79
2022/01/09 02:52:53;;;;;;;4.73;3.70;;;2.00;99.90;;;;;;5003150;28;20279;-78
2022/01/09 02:55:19;;;;;;;6.90;3.80;;;1.90;99.90;;;;;;5022014;28;20253;-78
2022/01/09 02:58:06;;;;;;;6.13;3.70;;;1.90;99.90;;;;;;5021955;28;20171;-77
2022/01/09 03:00:35;;;;;;;7.17;3.93;;;1.90;99.90;;;;;;5020782;28;20194;-78
2022/01/09 03:03:01;;;;;;;7.47;3.57;;;1.80;99.90;;;;;;5021362;28;20222;-78
2022/01/09 03:05:29;;;;;;;6.73;3.93;;;1.80;99.90;;;;;;5023405;28;20175;-79
2022/01/09 03:07:55;;;;;;;7.60;4.17;;;1.90;99.90;;;;;;5024142;28;20175;-79
2022/01/09 03:10:23;;;;;;;9.53;3.83;;;1.80;99.90;;;;;;5025525;28;20202;-79
2022/01/09 03:12:51;;;;;;;4.27;3.70;;;1.80;99.90;;;;;;5006805;28;20329;-78
2022/01/09 03:15:17;;;;;;;7.80;4.40;;;1.80;99.90;;;;;;5024396;28;20198;-79
2022/01/09 03:17:44;;;;;;;9.27;4.37;;;1.70;99.90;;;;;;5001177;28;20274;-78
2022/01/09 03:20:18;;;;;;;6.50;4.53;;;1.70;99.90;;;;;;5014747;28;20179;-79
2022/01/09 03:22:44;;;;;;;6.50;3.83;;;1.80;99.90;;;;;;5017384;28;20190;-79
2022/01/09 03:25:11;;;;;;;7.03;4.50;;;1.70;99.90;;;;;;5015140;28;20240;-78
2022/01/09 03:27:38;;;;;;;6.67;4.33;;;1.80;99.90;;;;;;5013188;28;20206;-77
2022/01/09 03:30:08;;;;;;;5.73;3.93;;;1.90;99.90;;;;;;5014210;28;20179;-77
2022/01/09 03:32:34;;;;;;;7.37;4.23;;;1.90;99.90;;;;;;5011876;28;20179;-78
2022/01/09 03:35:00;;;;;;;5.80;4.10;;;1.90;99.90;;;;;;5017277;28;20202;-78
2022/01/09 03:37:25;;;;;;;6.07;3.97;;;1.90;99.90;;;;;;5000836;28;20589;-78
2022/01/09 03:39:52;;;;;;;4.67;3.70;;;1.90;99.90;;;;;;5015576;28;20631;-78
2022/01/09 03:42:18;;;;;;;6.93;4.00;;;1.90;99.90;;;;;;5014517;28;20179;-79
2022/01/09 03:44:44;;;;;;;5.40;3.90;;;1.90;99.90;;;;;;5013232;28;20676;-78
2022/01/09 03:47:10;;;;;;;6.57;4.23;;;1.90;99.90;;;;;;5012589;28;20240;-77
2022/01/09 03:49:35;;;;;;;6.37;3.67;;;1.90;99.90;;;;;;5011998;28;20457;-78
2022/01/09 03:52:01;;;;;;;6.50;3.57;;;1.90;99.90;;;;;;5007297;28;20193;-77
2022/01/09 03:54:38;;;;;;;4.87;3.80;;;1.90;99.90;;;;;;5010077;28;20282;-78
2022/01/09 03:57:04;;;;;;;6.27;3.80;;;1.90;99.90;;;;;;4995742;28;20171;-77
2022/01/09 03:59:30;;;;;;;5.57;4.07;;;1.90;99.90;;;;;;5013806;28;20175;-77
2022/01/09 04:01:55;;;;;;;6.97;4.07;;;2.00;99.90;;;;;;4994988;28;20171;-78
2022/01/09 04:04:21;;;;;;;5.47;4.00;;;2.00;99.90;;;;;;5005479;28;20217;-78
2022/01/09 04:06:49;;;;;;;5.23;3.80;;;2.00;99.90;;;;;;4994850;28;20186;-78
2022/01/09 04:09:26;;;;;;;4.77;3.73;;;2.00;99.90;;;;;;4995889;28;20178;-78
2022/01/09 04:12:01;;;;;;;4.57;3.80;;;2.00;99.90;;;;;;5010824;28;20190;-77
2022/01/09 04:14:27;;;;;;;5.13;3.80;;;2.00;99.90;;;;;;5010912;28;20205;-77
2022/01/09 04:16:53;;;;;;;5.23;3.70;;;2.00;99.90;;;;;;5013722;28;20174;-78
2022/01/09 04:19:19;;;;;;;10.57;4.00;;;2.10;99.90;;;;;;5011198;28;20183;-78
2022/01/09 04:21:44;;;;;;;6.90;4.03;;;2.00;99.90;;;;;;4998748;28;20301;-78
2022/01/09 04:24:12;;;;;;;4.17;3.33;;;2.00;99.90;;;;;;4998458;28;20202;-78
2022/01/09 04:26:38;;;;;;;5.87;3.80;;;2.10;99.90;;;;;;4997175;28;20180;-78
2022/01/09 04:29:04;;;;;;;6.57;3.57;;;2.10;99.90;;;;;;5014251;28;20593;-78
2022/01/09 04:31:31;;;;;;;3.80;3.43;;;2.20;99.90;;;;;;5013981;28;20175;-78
2022/01/09 04:33:59;;;;;;;7.13;3.93;;;2.20;99.90;;;;;;5013562;28;20206;-78
2022/01/09 04:36:24;;;;;;;6.23;3.73;;;2.20;99.90;;;;;;5013441;28;20201;-78
2022/01/09 04:38:51;;;;;;;4.60;3.60;;;2.30;99.90;;;;;;5013249;28;20178;-78
2022/01/09 04:41:22;;;;;;;5.83;3.20;;;2.30;99.90;;;;;;5015780;28;20335;-78
2022/01/09 04:43:49;;;;;;;6.63;4.07;;;2.30;99.90;;;;;;4996652;28;20253;-78
2022/01/09 04:46:21;;;;;;;7.00;3.93;;;2.30;99.90;;;;;;4995104;28;20171;-77
2022/01/09 04:48:49;;;;;;;5.67;3.80;;;2.20;99.90;;;;;;5009969;28;20171;-78
2022/01/09 04:51:15;;;;;;;6.37;3.30;;;2.20;99.90;;;;;;5012060;28;20183;-78
2022/01/09 04:53:54;;;;;;;5.53;3.43;;;2.20;99.90;;;;;;5011912;28;20228;-78
2022/01/09 04:56:19;;;;;;;4.33;3.87;;;2.20;99.90;;;;;;4995282;28;20186;-78
2022/01/09 04:58:45;;;;;;;4.27;3.57;;;2.20;99.90;;;;;;5009604;28;20206;-78
2022/01/09 05:01:11;;;;;;;6.40;3.70;;;2.10;99.90;;;;;;4995654;28;20168;-79
2022/01/09 05:03:36;;;;;;;4.20;3.73;;;2.10;99.90;;;;;;5011505;28;20270;-79
2022/01/09 05:06:02;;;;;;;4.80;3.77;;;2.00;99.90;;;;;;5014266;28;20175;-79
2022/01/09 05:08:28;;;;;;;5.47;4.00;;;2.00;99.90;;;;;;4997151;28;20555;-79
2022/01/09 05:10:53;;;;;;;6.40;4.37;;;2.00;99.90;;;;;;5010807;28;20186;-79
2022/01/09 05:13:19;;;;;;;3.90;3.50;;;1.90;99.90;;;;;;5012208;28;20784;-79
2022/01/09 05:15:45;;;;;;;5.70;4.03;;;1.90;99.90;;;;;;4995187;28;20178;-79
2022/01/09 05:18:14;;;;;;;6.27;4.33;;;1.90;99.90;;;;;;4994641;28;20250;-79
2022/01/09 05:20:42;;;;;;;7.20;4.33;;;1.90;99.90;;;;;;5012160;28;20178;-79
2022/01/09 05:23:08;;;;;;;6.50;4.60;;;1.80;99.90;;;;;;5009709;28;20534;-79
2022/01/09 05:25:34;;;;;;;9.63;4.57;;;1.80;99.90;;;;;;4995368;28;20180;-78
2022/01/09 05:28:00;;;;;;;6.93;3.97;;;1.80;99.90;;;;;;5012188;28;20524;-78
2022/01/09 05:30:25;;;;;;;6.40;4.47;;;1.80;99.90;;;;;;5011495;28;20611;-78
2022/01/09 05:32:51;;;;;;;6.70;4.93;;;1.70;99.90;;;;;;4995575;28;20222;-79
2022/01/09 05:35:17;;;;;;;8.07;4.93;;;1.70;99.90;;;;;;5010087;28;20238;-77
2022/01/09 05:37:42;;;;;;;7.17;5.07;;;1.60;99.90;;;;;;4997259;28;20162;-79
2022/01/09 05:40:09;;;;;;;7.60;5.03;;;1.50;99.90;;;;;;4994292;28;20180;-79
2022/01/09 05:42:34;;;;;;;7.93;5.63;;;1.50;99.90;;;;;;5032450;28;20186;-77
2022/01/09 05:45:02;;;;;;;10.20;6.00;;;1.40;99.90;;;;;;5035638;28;20170;-76
2022/01/09 05:47:28;;;;;;;8.70;5.97;;;1.40;99.90;;;;;;5032748;28;20179;-78
2022/01/09 05:49:53;;;;;;;9.47;6.00;;;1.30;99.90;;;;;;5001680;28;20241;-78
2022/01/09 05:52:19;;;;;;;11.00;6.40;;;1.40;99.90;;;;;;4997272;28;20170;-79
2022/01/09 05:54:45;;;;;;;11.57;6.47;;;1.30;99.90;;;;;;5014204;28;20199;-78
2022/01/09 05:57:10;;;;;;;7.70;6.33;;;1.30;99.90;;;;;;5015351;28;20182;-79
2022/01/09 05:59:36;;;;;;;12.47;7.63;;;1.30;99.90;;;;;;4999756;28;20178;-78
2022/01/09 06:02:03;;;;;;;10.40;7.03;;;1.30;99.90;;;;;;5014680;28;20253;-78
2022/01/09 06:04:28;;;;;;;9.47;6.80;;;1.20;99.90;;;;;;5012585;28;20218;-78
2022/01/09 06:06:54;;;;;;;7.67;6.60;;;1.20;99.90;;;;;;4997553;28;20167;-78
2022/01/09 06:09:21;;;;;;;8.77;6.93;;;1.10;99.90;;;;;;5014310;28;20535;-79
2022/01/09 06:11:47;;;;;;;10.83;7.77;;;1.10;99.90;;;;;;5016168;28;20183;-79
2022/01/09 06:14:12;;;;;;;10.47;7.83;;;1.10;99.90;;;;;;5012915;28;20199;-79
2022/01/09 06:16:38;;;;;;;14.03;7.93;;;1.20;99.90;;;;;;5000251;28;20716;-78
2022/01/09 06:19:04;;;;;;;11.67;8.37;;;1.10;99.90;;;;;;5015799;28;20203;-78
2022/01/09 06:21:29;;;;;;;11.63;8.27;;;1.20;99.90;;;;;;5017482;28;20168;-78
2022/01/09 06:23:55;;;;;;;13.47;8.07;;;1.20;99.90;;;;;;5016104;28;20204;-79
2022/01/09 06:26:21;;;;;;;11.70;8.33;;;1.20;99.90;;;;;;5013475;28;20183;-79
2022/01/09 06:28:47;;;;;;;12.40;8.73;;;1.20;99.90;;;;;;5017633;28;20189;-78
2022/01/09 06:31:12;;;;;;;12.77;8.67;;;1.10;99.90;;;;;;4999972;28;20185;-78
2022/01/09 06:33:38;;;;;;;13.13;9.07;;;1.10;99.90;;;;;;5016835;28;20202;-79
2022/01/09 06:36:04;;;;;;;10.80;8.50;;;1.10;99.90;;;;;;4999194;28;20665;-79
2022/01/09 06:38:39;;;;;;;13.50;9.10;;;1.10;99.90;;;;;;5018482;28;20205;-79
2022/01/09 06:41:05;;;;;;;12.53;9.20;;;1.10;99.90;;;;;;5001743;28;20170;-78
2022/01/09 06:43:31;;;;;;;13.37;8.47;;;1.10;99.90;;;;;;4999923;28;20194;-79
2022/01/09 06:45:57;;;;;;;10.83;8.93;;;1.00;99.90;;;;;;5015776;28;20183;-79
2022/01/09 06:48:22;;;;;;;14.60;9.13;;;1.00;99.90;;;;;;5001131;28;20177;-79
2022/01/09 06:50:49;;;;;;;13.27;9.40;;;1.00;99.90;;;;;;5016916;28;20303;-78
2022/01/09 06:53:15;;;;;;;12.73;9.70;;;1.00;99.90;;;;;;5014194;28;20566;-79
2022/01/09 06:55:41;;;;;;;12.73;9.73;;;1.10;99.90;;;;;;5016101;28;20674;-79
2022/01/09 06:58:06;;;;;;;11.97;9.63;;;1.00;99.90;;;;;;5001958;28;20171;-78
2022/01/09 07:00:32;;;;;;;11.30;9.63;;;1.10;99.90;;;;;;4998293;28;20180;-78
2022/01/09 07:02:57;;;;;;;15.17;9.87;;;1.10;99.90;;;;;;5015157;28;20206;-79
2022/01/09 07:05:23;;;;;;;14.43;10.57;;;1.10;99.90;;;;;;5012519;28;20269;-79
2022/01/09 07:07:49;;;;;;;13.83;10.87;;;1.00;99.90;;;;;;5002973;28;20175;-78
2022/01/09 07:10:14;;;;;;;15.03;10.33;;;1.10;99.90;;;;;;5017124;28;20180;-78
2022/01/09 07:12:41;;;;;;;15.37;10.67;;;1.10;99.90;;;;;;5017376;28;20209;-79
2022/01/09 07:15:07;;;;;;;15.03;10.77;;;1.10;99.90;;;;;;5020428;28;20199;-79
2022/01/09 07:17:33;;;;;;;13.83;11.03;;;1.10;99.90;;;;;;5021761;28;20171;-79
2022/01/09 07:19:58;;;;;;;15.20;11.03;;;1.20;99.90;;;;;;5014388;28;20205;-78
2022/01/09 07:22:24;;;;;;;14.47;11.17;;;1.30;99.90;;;;;;5014583;28;20267;-78
2022/01/09 07:24:50;;;;;;;17.67;11.27;;;1.30;99.90;;;;;;5015395;28;20180;-79
2022/01/09 07:27:15;;;;;;;14.10;11.53;;;1.40;99.90;;;;;;5017358;28;20171;-79
2022/01/09 07:29:43;;;;;;;14.13;10.70;;;1.40;99.90;;;;;;5015817;28;20189;-78
2022/01/09 07:32:09;;;;;;;15.10;11.67;;;1.40;99.90;;;;;;5013748;28;20543;-77
2022/01/09 07:34:37;;;;;;;15.03;11.47;;;1.40;99.90;;;;;;5015490;28;20209;-78
2022/01/09 07:37:03;;;;;;;15.90;11.73;;;1.60;99.90;;;;;;5014615;28;20179;-79
2022/01/09 07:39:28;;;;;;;17.43;12.07;;;1.50;99.90;;;;;;5013842;28;20183;-78
2022/01/09 07:41:57;;;;;;;15.97;11.80;;;1.50;99.90;;;;;;5012168;28;20227;-78
2022/01/09 07:44:25;;;;;;;15.73;11.10;;;1.50;99.90;;;;;;5016557;28;20195;-78
2022/01/09 07:46:50;;;;;;;14.03;10.70;;;1.40;99.90;;;;;;5017774;28;20201;-78
2022/01/09 07:49:16;;;;;;;15.47;11.63;;;1.40;99.90;;;;;;5016186;28;20539;-78
2022/01/09 07:51:42;;;;;;;17.03;11.90;;;1.30;99.90;;;;;;5017375;28;20512;-78
2022/01/09 07:54:07;;;;;;;15.40;11.90;;;1.40;99.90;;;;;;5003225;28;20252;-79
2022/01/09 07:56:33;;;;;;;15.10;11.53;;;1.30;99.90;;;;;;5003750;28;20661;-80
2022/01/09 07:59:01;;;;;;;14.40;10.80;;;1.30;99.90;;;;;;5020709;28;20190;-79
2022/01/09 08:01:26;;;;;;;18.27;12.60;;;1.40;99.90;;;;;;5023333;28;20167;-79
2022/01/09 08:03:52;;;;;;;15.27;11.13;;;1.40;99.90;;;;;;5022089;28;20226;-79
2022/01/09 08:06:17;;;;;;;17.60;12.27;;;1.30;99.90;;;;;;5015543;28;20520;-78
2022/01/09 08:08:43;;;;;;;16.47;11.77;;;1.30;99.90;;;;;;5018354;28;20176;-79
2022/01/09 08:11:09;;;;;;;14.83;11.07;;;1.20;99.90;;;;;;5019327;28;20187;-77
2022/01/09 08:13:35;;;;;;;15.77;11.73;;;1.20;99.90;;;;;;5020433;28;20306;-80
2022/01/09 08:16:03;;;;;;;16.00;12.43;;;1.30;99.90;;;;;;5019285;28;20172;-78
2022/01/09 08:18:33;;;;;;;17.47;11.90;;;1.30;99.90;;;;;;5014054;28;20218;-78
2022/01/09 08:20:59;;;;;;;26.83;16.13;;;1.40;99.90;;;;;;5016712;28;20258;-80
2022/01/09 08:23:24;;;;;;;23.57;15.77;;;1.30;99.90;;;;;;5014222;28;20222;-81
2022/01/09 08:25:50;;;;;;;15.93;11.80;;;1.30;99.90;;;;;;5013717;28;20204;-79
2022/01/09 08:28:17;;;;;;;15.93;11.90;;;1.30;99.90;;;;;;5015137;28;20186;-78
2022/01/09 08:30:43;;;;;;;20.00;13.07;;;1.30;99.90;;;;;;5016213;28;20167;-79
2022/01/09 08:33:11;;;;;;;15.37;12.70;;;1.30;99.90;;;;;;5018880;28;20205;-79
2022/01/09 08:35:42;;;;;;;13.70;11.20;;;1.30;99.90;;;;;;5015878;28;20215;-79
2022/01/09 08:38:09;;;;;;;16.23;11.80;;;1.40;99.90;;;;;;5016435;28;20186;-79
2022/01/09 08:40:35;;;;;;;15.20;11.97;;;1.40;99.90;;;;;;5017222;28;20171;-79
2022/01/09 08:43:03;;;;;;;16.13;11.80;;;1.40;99.90;;;;;;5014407;28;20190;-79
2022/01/09 08:45:33;;;;;;;16.53;11.60;;;1.50;99.90;;;;;;5017023;28;20587;-79
2022/01/09 08:48:01;;;;;;;15.57;12.23;;;1.50;99.90;;;;;;5000020;28;20190;-79
2022/01/09 08:50:27;;;;;;;14.83;11.63;;;1.60;99.90;;;;;;5014694;28;20228;-79
2022/01/09 08:52:53;;;;;;;15.80;11.03;;;1.70;99.90;;;;;;5014181;28;20207;-79
2022/01/09 08:55:18;;;;;;;14.03;11.10;;;1.70;99.90;;;;;;4998973;28;20202;-79
2022/01/09 08:57:46;;;;;;;16.03;11.40;;;1.70;99.90;;;;;;5009600;28;20171;-78
2022/01/09 09:00:13;;;;;;;16.80;11.30;;;1.80;99.90;;;;;;5015844;28;20171;-79
2022/01/09 09:02:41;;;;;;;19.03;11.27;;;1.80;99.90;;;;;;5011403;28;20723;-79
2022/01/09 09:05:07;;;;;;;13.30;11.23;;;1.90;99.90;;;;;;4999545;28;20217;-77
2022/01/09 09:07:34;;;;;;;16.27;11.60;;;1.90;99.90;;;;;;5015977;28;20270;-79
2022/01/09 09:10:03;;;;;;;17.27;11.63;;;2.00;99.90;;;;;;5014062;28;20205;-79
2022/01/09 09:12:31;;;;;;;13.93;10.73;;;2.00;99.90;;;;;;5016522;28;20236;-79
2022/01/09 09:14:58;;;;;;;12.60;10.60;;;1.90;99.90;;;;;;5012103;28;20621;-77
2022/01/09 09:17:24;;;;;;;14.43;10.00;;;1.90;99.90;;;;;;5018550;28;20175;-79
2022/01/09 09:19:49;;;;;;;12.97;10.27;;;1.90;99.90;;;;;;5017309;28;20526;-79
2022/01/09 09:22:15;;;;;;;14.13;10.47;;;2.00;99.90;;;;;;5017427;28;20174;-79
2022/01/09 09:24:41;;;;;;;15.60;11.60;;;2.00;99.90;;;;;;5017158;28;20299;-79
2022/01/09 09:27:06;;;;;;;14.90;11.40;;;2.10;99.90;;;;;;5019377;28;20175;-79
2022/01/09 09:29:33;;;;;;;14.30;11.00;;;2.20;99.90;;;;;;5019044;28;20183;-78
2022/01/09 09:31:59;;;;;;;13.83;9.80;;;2.20;99.90;;;;;;5019260;28;20185;-80
2022/01/09 09:34:26;;;;;;;15.57;11.47;;;2.30;99.90;;;;;;5018826;28;20293;-78
2022/01/09 09:36:57;;;;;;;13.27;10.27;;;2.30;99.90;;;;;;5019459;28;20183;-79
2022/01/09 09:39:30;;;;;;;14.33;10.27;;;2.30;99.90;;;;;;5017307;28;20175;-79
2022/01/09 09:41:57;;;;;;;12.33;9.70;;;2.30;99.90;;;;;;5019231;28;20175;-80
2022/01/09 09:44:22;;;;;;;14.93;9.97;;;2.40;99.90;;;;;;5000440;28;20206;-80
2022/01/09 09:46:50;;;;;;;11.83;10.10;;;2.50;99.90;;;;;;5017391;28;20179;-78
2022/01/09 09:49:17;;;;;;;14.03;10.83;;;2.50;99.90;;;;;;5003426;28;20546;-79
2022/01/09 09:51:45;;;;;;;11.77;9.77;;;2.60;99.90;;;;;;5017650;28;20259;-80
2022/01/09 09:54:11;;;;;;;10.97;9.30;;;2.60;99.90;;;;;;5002239;28;20662;-80
2022/01/09 09:56:37;;;;;;;11.63;9.43;;;2.60;99.90;;;;;;5016122;28;20269;-78
2022/01/09 09:59:03;;;;;;;12.37;9.03;;;2.60;99.90;;;;;;5016619;28;20182;-78
2022/01/09 10:01:31;;;;;;;13.40;9.80;;;2.60;99.90;;;;;;5016193;28;20547;-80
2022/01/09 10:04:04;;;;;;;12.43;9.83;;;2.80;99.90;;;;;;5007506;28;21400;-80
2022/01/09 10:06:43;;;;;;;11.97;9.60;;;2.70;99.90;;;;;;5003584;28;20210;-79
2022/01/09 10:09:20;;;;;;;11.87;9.20;;;2.70;99.90;;;;;;5020199;28;20190;-79
2022/01/09 10:11:49;;;;;;;14.30;9.67;;;2.70;99.90;;;;;;5003479;28;20240;-79
2022/01/09 10:14:26;;;;;;;12.27;9.10;;;2.80;99.90;;;;;;5000043;28;20203;-79
2022/01/09 10:17:11;;;;;;;14.53;8.93;;;2.80;99.90;;;;;;5000131;28;20662;-79
2022/01/09 10:19:40;;;;;;;10.90;8.63;;;2.80;99.90;;;;;;4997646;28;20175;-79
2022/01/09 10:22:06;;;;;;;9.37;7.47;;;2.80;99.90;;;;;;5019173;28;20190;-79
2022/01/09 10:24:33;;;;;;;10.70;8.30;;;2.80;99.90;;;;;;4998707;28;20206;-79
2022/01/09 10:27:03;;;;;;;8.80;7.40;;;2.90;99.90;;;;;;5016958;28;20269;-80
2022/01/09 10:29:31;;;;;;;10.10;8.07;;;2.90;99.90;;;;;;5002154;28;20175;-80
2022/01/09 10:31:56;;;;;;;9.93;8.20;;;2.80;99.90;;;;;;5017989;28;20218;-79
2022/01/09 10:34:23;;;;;;;10.30;7.57;;;2.80;99.90;;;;;;5000590;28;20214;-80
2022/01/09 10:36:51;;;;;;;8.40;7.00;;;2.90;99.90;;;;;;5016237;28;20181;-79
2022/01/09 10:39:26;;;;;;;9.07;7.23;;;2.80;99.90;;;;;;5013442;28;20210;-80
2022/01/09 10:41:58;;;;;;;8.43;6.90;;;2.90;99.90;;;;;;5017181;28;20179;-80
2022/01/09 10:44:35;;;;;;;7.97;6.30;;;2.80;99.90;;;;;;5014326;28;20235;-80
2022/01/09 10:47:06;;;;;;;9.63;7.20;;;2.90;99.90;;;;;;5032631;28;20186;-78
2022/01/09 10:49:44;;;;;;;8.03;7.23;;;2.80;99.90;;;;;;5015446;28;20163;-79
2022/01/09 10:52:28;;;;;;;10.17;7.43;;;2.90;99.90;;;;;;5030859;28;20182;-79
2022/01/09 10:54:57;;;;;;;10.57;7.47;;;3.00;99.90;;;;;;5019117;28;20214;-79
2022/01/09 10:57:25;;;;;;;6.93;6.23;;;3.00;99.90;;;;;;5018057;28;20191;-78
2022/01/09 11:00:17;;;;;;;8.03;6.53;;;2.90;99.90;;;;;;5014543;28;20225;-78
2022/01/09 11:02:46;;;;;;;8.40;6.67;;;2.90;99.90;;;;;;5005762;28;20221;-80
2022/01/09 11:05:12;;;;;;;8.83;6.63;;;2.90;99.90;;;;;;5020864;28;20211;-79
2022/01/09 11:07:37;;;;;;;7.37;6.17;;;3.00;99.90;;;;;;5005359;28;20217;-80
2022/01/09 11:10:06;;;;;;;7.33;6.57;;;3.10;99.90;;;;;;5005450;28;20171;-80
2022/01/09 11:12:46;;;;;;;8.63;6.83;;;3.20;99.90;;;;;;5019683;28;20236;-80
2022/01/09 11:15:13;;;;;;;7.20;6.27;;;3.10;99.90;;;;;;5020268;28;20266;-79
2022/01/09 11:17:40;;;;;;;7.30;6.60;;;3.10;99.90;;;;;;5004312;28;20225;-80
2022/01/09 11:20:06;;;;;;;8.03;6.80;;;3.00;99.90;;;;;;5023394;28;20190;-80
2022/01/09 11:22:32;;;;;;;7.80;6.43;;;3.10;99.90;;;;;;5016831;28;20194;-80
2022/01/09 11:25:07;;;;;;;7.77;6.50;;;3.00;99.90;;;;;;5004604;28;20167;-78
2022/01/09 11:27:46;;;;;;;7.50;6.70;;;3.10;99.90;;;;;;5024034;28;20254;-79
2022/01/09 11:30:30;;;;;;;7.17;6.47;;;3.10;99.90;;;;;;5010813;28;20182;-79
2022/01/09 11:33:03;;;;;;;6.80;5.87;;;3.00;99.90;;;;;;5010137;28;20229;-78
2022/01/09 11:35:48;;;;;;;6.93;6.17;;;3.00;99.90;;;;;;5025188;28;20258;-79
2022/01/09 11:38:41;;;;;;;6.63;5.73;;;3.20;99.90;;;;;;5024498;28;20277;-79
2022/01/09 11:41:21;;;;;;;7.50;6.70;;;3.20;99.90;;;;;;5008793;28;20171;-78
2022/01/09 11:43:58;;;;;;;7.50;6.63;;;3.20;99.90;;;;;;5019601;28;20204;-80
2022/01/09 11:46:30;;;;;;;8.67;6.63;;;3.30;99.90;;;;;;5016140;28;20175;-79
2022/01/09 11:48:55;;;;;;;7.33;6.63;;;3.30;99.90;;;;;;5017686;28;20319;-79
2022/01/09 11:51:28;;;;;;;8.17;6.83;;;3.40;99.90;;;;;;4999262;28;20178;-80
2022/01/09 11:54:03;;;;;;;10.00;7.40;;;3.40;99.90;;;;;;5015468;28;20217;-80
2022/01/09 11:56:41;;;;;;;7.60;6.77;;;3.40;99.90;;;;;;5001044;28;20205;-79
2022/01/09 11:59:23;;;;;;;7.70;6.57;;;3.30;99.90;;;;;;5003018;28;20628;-79
2022/01/09 12:01:55;;;;;;;7.63;6.90;;;3.30;99.90;;;;;;5018253;28;20548;-79
2022/01/09 12:04:46;;;;;;;9.30;7.27;;;3.40;99.90;;;;;;5017060;28;20218;-79
2022/01/09 12:07:17;;;;;;;11.30;8.33;;;3.40;99.90;;;;;;5020595;28;20357;-79
2022/01/09 12:09:48;;;;;;;10.37;8.37;;;3.50;99.90;;;;;;5002997;28;20186;-78
2022/01/09 12:12:22;;;;;;;9.67;7.93;;;3.60;99.90;;;;;;5016105;28;20179;-79
2022/01/09 12:14:55;;;;;;;12.03;8.00;;;3.70;99.90;;;;;;5000995;28;20194;-78
2022/01/09 12:17:21;;;;;;;12.57;8.63;;;3.80;99.90;;;;;;5002991;28;20261;-78
2022/01/09 12:20:07;;;;;;;12.97;8.90;;;3.80;99.90;;;;;;5004032;28;20240;-79
2022/01/09 12:22:51;;;;;;;13.33;8.83;;;3.80;99.90;;;;;;5019045;28;20224;-79
2022/01/09 12:25:25;;;;;;;12.53;8.50;;;3.90;99.90;;;;;;5005264;28;20210;-79
2022/01/09 12:28:11;;;;;;;14.90;10.07;;;3.90;99.90;;;;;;5006317;28;20178;-78
2022/01/09 12:30:38;;;;;;;16.47;9.77;;;4.00;99.90;;;;;;5009860;28;20186;-79
2022/01/09 12:33:25;;;;;;;14.17;9.33;;;4.00;99.90;;;;;;5011731;28;20202;-78
2022/01/09 12:36:10;;;;;;;12.33;9.03;;;4.00;99.90;;;;;;5000701;28;20218;-77
2022/01/09 12:38:53;;;;;;;13.60;9.60;;;4.10;99.90;;;;;;4996912;28;20226;-78
2022/01/09 12:41:22;;;;;;;17.33;9.70;;;4.10;99.90;;;;;;5012606;28;20212;-77
2022/01/09 12:43:56;;;;;;;15.43;9.80;;;4.20;99.90;;;;;;5028392;28;20199;-78
2022/01/09 12:46:22;;;;;;;15.87;8.77;;;4.20;99.90;;;;;;5028818;28;20190;-78
2022/01/09 12:49:07;;;;;;;15.47;8.90;;;4.20;99.90;;;;;;5012046;28;20179;-77
2022/01/09 12:51:35;;;;;;;15.60;10.53;;;4.20;99.90;;;;;;5028315;28;20246;-78
2022/01/09 12:54:06;;;;;;;15.23;10.20;;;4.20;99.90;;;;;;5028714;28;20222;-78
2022/01/09 12:56:37;;;;;;;14.13;9.97;;;4.20;99.90;;;;;;5011914;28;20198;-78
2022/01/09 12:59:11;;;;;;;18.30;9.60;;;4.30;99.90;;;;;;5028142;28;20173;-78